Sivas Nuri Demirag Airport

Current Flights

Departures
Arrivals
Number Arrival From Airline
 TK2658 07:10  Istanbul  Turkish Airlines
 PC2752 21:20 +10  Istanbul  Pegasus
 TK2658 07:10  Istanbul  Turkish Airlines
 PC2750 08:25  Istanbul  Pegasus
Info
Name: Sivas Nuri Demirag Airport
Identifier:  VAS/LTAR
Local Time:  20. Jun 01:49
City
Flights per Day
6 flights
Distance: 681km (423mi)
Punctuality
79% (1 flights per day delayed)
Delay Average: 2 minutes
Current Weather
 14 C (Humidity: 100%)
  4kt (7km/h / 4mph) from 110°
  Few clouds at 2,000 feet (609 meter)
  Broken clouds at 3,000 feet (914 meter)
  7km (4 mi.)
 Light/Moderate: Thunderstorm Rain
 METAR LTAR 192224Z 11004KT 7000 -TSRA FEW020CB BKN030 14/14 Q1015

Current Delays

Departures
N/A
Arrivals
N/A

Destinations

Top Destinations
Airport Flights
per week
Seats
per week
  Istanbul (SAW) 31 4,901 4 700
  Istanbul (IST) 26 4,203 3 600
  Izmir (ADB) 4 705 0 100
  Istanbul (ISL) 0 33 0 4

Airlines & Planes

Top Airlines
Airline Flights
per Day
Seats
per Day
  Turkish Airlines 5 869
  Pegasus 3 511
  SunExpress 0 25
Top Plane Types
Model Flights Seats
Boeing B737-800 6.2/day 996/day 996.7
Airbus A321 1.2/day 216/day 216.13333333333333
Airbus A320 0.7/day 129/day 129
Airbus A320 Neo 0.5/day 36/day 36
Airbus A319 0.1/day 17/day 17.2
Boeing B737-900 0.1/day 11/day 11.266666666666667